Time;durP1;ratioP1;P1;durP2;ratioP2;P2;SDS_P1;SDS_P2;PMS_P1;PMS_P2;Temp;Humidity;BMP_temperature;BMP_pressure;BME280_temperature;BME280_humidity;BME280_pressure;Samples;Min_cycle;Max_cycle;Signal;HPM_P1;HPM_P2
2021/12/27 00:01:55;;;;;;;30.42;20.02;;;-2.50;81.80;;;;;;5115171;27;20307;-64
2021/12/27 00:04:22;;;;;;;36.60;22.10;;;-2.50;81.90;;;;;;5117529;27;20222;-64
2021/12/27 00:06:48;;;;;;;35.00;19.90;;;-2.50;82.10;;;;;;5135503;27;20221;-65
2021/12/27 00:09:15;;;;;;;31.50;20.80;;;-2.50;81.80;;;;;;5134960;27;20219;-65
2021/12/27 00:11:43;;;;;;;33.53;21.30;;;-2.50;81.90;;;;;;5135882;27;20240;-66
2021/12/27 00:14:11;;;;;;;39.90;20.50;;;-2.40;82.10;;;;;;5135606;27;20224;-65
2021/12/27 00:16:38;;;;;;;33.03;20.65;;;-2.40;81.70;;;;;;5136040;27;20221;-65
2021/12/27 00:19:05;;;;;;;32.10;21.65;;;-2.40;81.90;;;;;;5135633;27;20233;-65
2021/12/27 00:21:32;;;;;;;40.25;23.67;;;-2.40;82.20;;;;;;5135839;27;20227;-64
2021/12/27 00:23:59;;;;;;;34.47;21.60;;;-2.50;81.90;;;;;;5117085;27;20222;-64
2021/12/27 00:26:26;;;;;;;37.88;20.27;;;-2.50;82.00;;;;;;5115329;27;20567;-64
2021/12/27 00:28:52;;;;;;;38.65;21.67;;;-2.60;82.10;;;;;;5130583;27;20224;-64
2021/12/27 00:31:21;;;;;;;32.25;22.58;;;-2.60;82.20;;;;;;5114847;27;20227;-64
2021/12/27 00:33:47;;;;;;;34.10;20.58;;;-2.50;82.50;;;;;;5115237;27;20226;-64
2021/12/27 00:36:14;;;;;;;36.05;23.58;;;-2.50;82.50;;;;;;5134523;27;21298;-66
2021/12/27 00:38:41;;;;;;;51.47;33.75;;;-2.60;81.90;;;;;;5135587;27;20699;-65
2021/12/27 00:41:08;;;;;;;45.30;28.88;;;-2.60;82.40;;;;;;5135054;27;20240;-65
2021/12/27 00:43:35;;;;;;;42.10;24.20;;;-2.60;82.80;;;;;;5135462;27;20215;-65
2021/12/27 00:46:02;;;;;;;41.10;27.20;;;-2.60;82.50;;;;;;5134759;27;20229;-65
2021/12/27 00:48:30;;;;;;;38.28;23.10;;;-2.60;82.80;;;;;;5135094;27;20217;-65
2021/12/27 00:50:57;;;;;;;45.40;25.90;;;-2.60;83.00;;;;;;5134626;27;20324;-65
2021/12/27 00:53:24;;;;;;;38.28;25.58;;;-2.60;82.80;;;;;;5135034;27;20229;-63
2021/12/27 00:55:51;;;;;;;48.80;33.22;;;-2.60;83.10;;;;;;5135109;27;20224;-64
2021/12/27 00:58:17;;;;;;;46.10;27.50;;;-2.50;83.00;;;;;;5129488;27;21214;-64
2021/12/27 01:00:45;;;;;;;37.17;25.70;;;-2.50;82.90;;;;;;5131313;27;20297;-64
2021/12/27 01:03:12;;;;;;;40.42;24.45;;;-2.50;82.50;;;;;;5134514;27;20234;-64
2021/12/27 01:05:40;;;;;;;42.17;27.90;;;-2.50;83.00;;;;;;5132987;27;20246;-64
2021/12/27 01:08:07;;;;;;;50.42;27.85;;;-2.50;82.80;;;;;;5132489;27;20232;-64
2021/12/27 01:10:59;;;;;;;39.08;24.50;;;-2.50;82.60;;;;;;5132919;27;20220;-63
2021/12/27 01:13:38;;;;;;;40.90;27.60;;;-2.60;82.50;;;;;;5133005;27;20926;-64
2021/12/27 01:16:12;;;;;;;46.05;28.75;;;-2.60;82.90;;;;;;5132613;27;20285;-65
2021/12/27 01:18:42;;;;;;;40.67;27.17;;;-2.60;83.20;;;;;;5133019;27;20687;-64
2021/12/27 01:21:11;;;;;;;46.35;29.95;;;-2.70;83.10;;;;;;5133957;27;20229;-64
2021/12/27 01:23:38;;;;;;;50.10;32.72;;;-2.60;83.60;;;;;;5119544;27;20225;-65
2021/12/27 01:26:04;;;;;;;39.88;26.60;;;-2.70;83.20;;;;;;5113396;27;20239;-64
2021/12/27 01:28:31;;;;;;;55.15;34.20;;;-2.60;83.70;;;;;;5124920;27;20305;-65
2021/12/27 01:30:58;;;;;;;44.25;27.67;;;-2.80;83.20;;;;;;5131880;27;20233;-64
2021/12/27 01:33:26;;;;;;;43.15;28.75;;;-2.80;83.60;;;;;;5113373;27;20248;-64
2021/12/27 01:35:53;;;;;;;40.55;26.65;;;-2.80;83.70;;;;;;5130501;27;20223;-64
2021/12/27 01:38:22;;;;;;;50.28;28.58;;;-2.80;84.10;;;;;;5133959;27;20221;-64
2021/12/27 01:40:52;;;;;;;38.63;25.45;;;-2.80;83.80;;;;;;5134206;27;20229;-64
2021/12/27 01:43:21;;;;;;;47.25;27.80;;;-2.70;83.70;;;;;;5134043;27;20257;-64
2021/12/27 01:45:50;;;;;;;47.08;27.70;;;-2.80;83.40;;;;;;5134210;27;20224;-65
2021/12/27 01:48:21;;;;;;;44.53;26.73;;;-2.80;83.40;;;;;;5133866;27;20221;-64
2021/12/27 01:50:49;;;;;;;43.40;27.73;;;-2.70;83.00;;;;;;5133956;27;20236;-64
2021/12/27 01:53:18;;;;;;;39.00;25.77;;;-2.70;83.20;;;;;;5128841;27;20300;-64
2021/12/27 01:55:47;;;;;;;46.20;27.33;;;-2.80;82.90;;;;;;5134026;27;20571;-65
2021/12/27 01:58:14;;;;;;;41.90;25.55;;;-2.70;83.30;;;;;;5133513;27;20758;-65
2021/12/27 02:00:44;;;;;;;45.85;28.48;;;-2.80;83.30;;;;;;5124701;27;20243;-64
2021/12/27 02:03:11;;;;;;;44.67;29.58;;;-2.80;83.60;;;;;;5133226;27;20304;-64
2021/12/27 02:05:38;;;;;;;47.92;29.02;;;-2.70;83.40;;;;;;5133947;27;20316;-65
2021/12/27 02:08:05;;;;;;;43.60;29.38;;;-2.70;83.30;;;;;;5133341;27;20228;-64
2021/12/27 02:10:33;;;;;;;43.83;27.65;;;-2.70;83.20;;;;;;5133829;27;20317;-65
2021/12/27 02:13:02;;;;;;;47.20;28.70;;;-2.80;83.20;;;;;;5133898;27;20731;-64
2021/12/27 02:15:28;;;;;;;43.55;24.77;;;-2.80;83.20;;;;;;5133347;27;20237;-64
2021/12/27 02:17:56;;;;;;;37.58;25.48;;;-2.80;83.10;;;;;;5133156;27;20231;-64
2021/12/27 02:20:26;;;;;;;52.38;34.20;;;-2.80;83.40;;;;;;5133264;27;20223;-64
2021/12/27 02:22:55;;;;;;;79.82;46.15;;;-2.80;83.30;;;;;;5124801;27;20239;-64
2021/12/27 02:25:22;;;;;;;80.38;53.50;;;-2.80;83.50;;;;;;5116965;27;20293;-65
2021/12/27 02:27:50;;;;;;;95.43;57.35;;;-2.80;83.60;;;;;;5131708;27;20236;-64
2021/12/27 02:30:19;;;;;;;97.68;58.97;;;-2.70;83.70;;;;;;5112317;27;20240;-65
2021/12/27 02:32:47;;;;;;;97.82;61.95;;;-2.60;84.10;;;;;;5112369;27;20279;-64
2021/12/27 02:35:16;;;;;;;99.35;63.00;;;-2.50;84.00;;;;;;5119372;27;20723;-64
2021/12/27 02:37:45;;;;;;;95.47;64.32;;;-2.50;83.40;;;;;;5113062;27;20247;-64
2021/12/27 02:40:12;;;;;;;96.78;63.47;;;-2.40;83.30;;;;;;5112359;27;20238;-64
2021/12/27 02:42:54;;;;;;;130.05;76.25;;;-2.40;83.30;;;;;;5112842;27;20705;-65
2021/12/27 02:45:21;;;;;;;114.65;66.05;;;-2.40;83.30;;;;;;5112758;27;20657;-65
2021/12/27 02:47:48;;;;;;;113.70;68.80;;;-2.30;83.30;;;;;;5129999;27;20228;-65
2021/12/27 02:50:16;;;;;;;121.07;65.30;;;-2.40;82.80;;;;;;5132360;27;20311;-65
2021/12/27 02:52:44;;;;;;;80.90;50.50;;;-2.40;82.90;;;;;;5133366;27;20227;-65
2021/12/27 02:55:15;;;;;;;74.22;47.95;;;-2.40;82.70;;;;;;5133011;27;20225;-65
2021/12/27 02:57:43;;;;;;;66.47;43.95;;;-2.40;83.50;;;;;;5133531;27;20225;-65
2021/12/27 03:00:16;;;;;;;78.85;43.83;;;-2.50;82.50;;;;;;5116973;27;20613;-65
2021/12/27 03:02:44;;;;;;;58.03;38.38;;;-2.50;82.70;;;;;;5123343;27;20682;-64
2021/12/27 03:05:12;;;;;;;62.95;40.28;;;-2.60;82.90;;;;;;5121397;27;20232;-64
2021/12/27 03:07:40;;;;;;;61.30;36.20;;;-2.60;83.20;;;;;;5132964;27;20233;-65
2021/12/27 03:10:09;;;;;;;52.47;34.97;;;-2.50;83.30;;;;;;5132688;27;20235;-64
2021/12/27 03:12:38;;;;;;;59.75;36.90;;;-2.40;83.70;;;;;;5132790;27;20303;-65
2021/12/27 03:15:06;;;;;;;61.30;36.88;;;-2.40;83.40;;;;;;5133072;27;20278;-64
2021/12/27 03:17:33;;;;;;;55.65;34.65;;;-2.30;83.50;;;;;;5132804;27;20232;-64
2021/12/27 03:20:00;;;;;;;56.50;37.03;;;-2.30;83.60;;;;;;5114530;27;20229;-64
2021/12/27 03:22:27;;;;;;;54.20;35.70;;;-2.20;83.20;;;;;;5117077;27;20227;-64
2021/12/27 03:24:54;;;;;;;55.25;34.42;;;-2.20;82.80;;;;;;5133120;27;20221;-65
2021/12/27 03:27:22;;;;;;;52.67;33.05;;;-2.20;82.30;;;;;;5132379;27;20232;-64
2021/12/27 03:29:49;;;;;;;52.80;30.77;;;-2.20;82.70;;;;;;5133153;27;20228;-65
2021/12/27 03:32:17;;;;;;;48.28;29.38;;;-2.20;82.60;;;;;;5119246;27;20304;-64
2021/12/27 03:34:54;;;;;;;50.20;29.95;;;-2.10;82.40;;;;;;5119270;27;20225;-65
2021/12/27 03:37:21;;;;;;;39.65;27.05;;;-2.10;82.30;;;;;;5114952;27;20233;-64
2021/12/27 03:39:48;;;;;;;48.63;29.00;;;-2.10;82.60;;;;;;5113224;27;20235;-65
2021/12/27 03:42:16;;;;;;;51.38;29.92;;;-2.00;83.20;;;;;;5132414;27;20225;-65
2021/12/27 03:44:45;;;;;;;44.17;25.75;;;-2.00;82.50;;;;;;5134820;27;20232;-65
2021/12/27 03:47:12;;;;;;;46.75;28.27;;;-2.00;82.80;;;;;;5136361;27;20704;-65
2021/12/27 03:49:39;;;;;;;45.78;27.10;;;-1.90;82.90;;;;;;5135599;27;20226;-64
2021/12/27 03:52:07;;;;;;;46.20;26.98;;;-1.90;81.90;;;;;;5123106;27;20220;-64
2021/12/27 03:54:34;;;;;;;37.28;26.77;;;-2.00;81.20;;;;;;5115480;27;20700;-64
2021/12/27 03:57:01;;;;;;;49.40;28.85;;;-1.90;82.10;;;;;;5115871;27;20951;-64
2021/12/27 03:59:47;;;;;;;47.67;29.38;;;-1.90;81.70;;;;;;5115658;27;20223;-64
2021/12/27 04:02:16;;;;;;;45.55;28.50;;;-1.80;82.10;;;;;;5115679;27;20221;-64
2021/12/27 04:04:44;;;;;;;37.85;26.27;;;-1.90;81.30;;;;;;5120574;27;20361;-64
2021/12/27 04:07:11;;;;;;;43.42;25.88;;;-1.80;81.70;;;;;;5135346;27;20230;-64
2021/12/27 04:09:39;;;;;;;39.45;27.30;;;-1.80;82.00;;;;;;5135795;27;20236;-64
2021/12/27 04:12:06;;;;;;;51.13;27.42;;;-1.80;81.70;;;;;;5136054;27;20683;-65
2021/12/27 04:14:33;;;;;;;47.53;29.13;;;-1.80;81.50;;;;;;5135580;27;20219;-64
2021/12/27 04:17:00;;;;;;;54.20;28.45;;;-1.70;81.60;;;;;;5136302;27;20227;-64
2021/12/27 04:19:28;;;;;;;38.10;24.45;;;-1.80;81.00;;;;;;5135484;27;20248;-65
2021/12/27 04:21:55;;;;;;;43.97;28.67;;;-1.80;81.40;;;;;;5135870;27;20227;-64
2021/12/27 04:24:22;;;;;;;42.92;26.38;;;-1.80;81.00;;;;;;5135615;27;20242;-65
2021/12/27 04:26:49;;;;;;;44.85;28.67;;;-1.80;81.00;;;;;;5135607;27;20237;-64
2021/12/27 04:29:15;;;;;;;48.10;29.65;;;-1.90;81.00;;;;;;5135438;27;20220;-65
2021/12/27 04:31:42;;;;;;;55.17;29.80;;;-2.00;81.50;;;;;;5126698;27;20236;-64
2021/12/27 04:34:09;;;;;;;46.75;27.25;;;-2.00;81.70;;;;;;5126329;27;20218;-64
2021/12/27 04:36:37;;;;;;;45.63;26.67;;;-2.00;81.90;;;;;;5135237;27;20682;-65
2021/12/27 04:39:04;;;;;;;47.08;28.40;;;-2.00;82.10;;;;;;5135478;27;20219;-64
2021/12/27 04:41:32;;;;;;;43.00;27.80;;;-2.10;82.00;;;;;;5135058;27;20221;-65
2021/12/27 04:43:59;;;;;;;47.85;29.55;;;-2.00;82.20;;;;;;5133564;27;20235;-65
2021/12/27 04:46:26;;;;;;;44.65;27.85;;;-2.10;81.80;;;;;;5120076;27;20225;-65
2021/12/27 04:48:53;;;;;;;55.00;28.10;;;-2.10;82.20;;;;;;5135507;27;20231;-65
2021/12/27 04:51:21;;;;;;;45.75;26.17;;;-2.20;82.50;;;;;;5135045;27;20243;-65
2021/12/27 04:53:50;;;;;;;49.22;27.05;;;-2.20;82.60;;;;;;5116948;27;20217;-65
2021/12/27 04:56:17;;;;;;;42.75;27.42;;;-2.20;82.50;;;;;;5132584;27;20302;-64
2021/12/27 04:58:46;;;;;;;43.65;26.65;;;-2.20;82.70;;;;;;5134694;27;20233;-65
2021/12/27 05:01:13;;;;;;;50.72;27.42;;;-2.20;83.00;;;;;;5120351;27;20294;-65
2021/12/27 05:03:40;;;;;;;40.15;26.25;;;-2.10;83.20;;;;;;5127065;27;20228;-64
2021/12/27 05:06:07;;;;;;;46.65;28.42;;;-2.00;83.40;;;;;;5134981;27;20224;-65
2021/12/27 05:08:35;;;;;;;54.63;28.05;;;-1.90;83.10;;;;;;5134146;27;20320;-65
2021/12/27 05:11:03;;;;;;;43.88;28.20;;;-1.90;82.30;;;;;;5134816;27;20235;-65
2021/12/27 05:13:32;;;;;;;41.40;26.17;;;-1.90;82.80;;;;;;5134607;27;20231;-65
2021/12/27 05:16:00;;;;;;;52.72;28.08;;;-1.80;83.00;;;;;;5134863;27;20229;-64
2021/12/27 05:18:27;;;;;;;42.78;25.45;;;-1.80;82.80;;;;;;5134511;27;20559;-65
2021/12/27 05:20:54;;;;;;;45.25;27.05;;;-1.80;82.80;;;;;;5134805;27;20615;-65
2021/12/27 05:23:21;;;;;;;42.88;26.00;;;-1.90;82.90;;;;;;5134501;27;20219;-65
2021/12/27 05:25:48;;;;;;;47.45;27.63;;;-1.90;83.30;;;;;;5134279;27;20243;-64
2021/12/27 05:28:16;;;;;;;45.60;26.63;;;-1.90;83.40;;;;;;5132681;27;20223;-64
2021/12/27 05:30:47;;;;;;;46.35;27.27;;;-1.80;83.90;;;;;;5133692;27;20564;-65
2021/12/27 05:33:15;;;;;;;37.92;25.27;;;-1.80;83.60;;;;;;5113980;27;20618;-65
2021/12/27 05:35:42;;;;;;;51.67;27.80;;;-1.70;84.00;;;;;;5128876;27;20232;-65
2021/12/27 05:38:10;;;;;;;45.55;27.83;;;-1.60;83.70;;;;;;5134419;27;20223;-65
2021/12/27 05:40:37;;;;;;;49.38;29.77;;;-1.60;83.50;;;;;;5133902;27;20226;-65
2021/12/27 05:43:06;;;;;;;41.63;25.38;;;-1.50;83.60;;;;;;5134386;27;20410;-64
2021/12/27 05:45:34;;;;;;;47.33;26.27;;;-1.60;82.80;;;;;;5133814;27;20674;-65
2021/12/27 05:48:01;;;;;;;39.58;25.35;;;-1.50;83.30;;;;;;5134142;27;20224;-64
2021/12/27 05:50:28;;;;;;;44.35;26.67;;;-1.50;83.20;;;;;;5133730;27;20227;-65
2021/12/27 05:52:55;;;;;;;42.80;26.55;;;-1.50;83.80;;;;;;5133808;27;20210;-64
2021/12/27 05:55:22;;;;;;;42.67;25.40;;;-1.60;83.90;;;;;;5134052;27;20219;-65
2021/12/27 05:57:49;;;;;;;49.55;28.35;;;-1.60;84.10;;;;;;5133747;27;20674;-65
2021/12/27 06:00:17;;;;;;;45.88;26.98;;;-1.60;84.10;;;;;;5117227;27;20803;-65
2021/12/27 06:02:45;;;;;;;48.13;28.75;;;-1.50;84.50;;;;;;5112893;27;20226;-65
2021/12/27 06:05:13;;;;;;;42.92;27.80;;;-1.50;84.20;;;;;;5122690;27;20248;-65
2021/12/27 06:07:41;;;;;;;48.80;28.02;;;-1.50;84.30;;;;;;5132010;27;20653;-65
2021/12/27 06:10:08;;;;;;;35.92;25.90;;;-1.40;84.70;;;;;;5133732;27;20236;-65
2021/12/27 06:12:35;;;;;;;52.78;27.95;;;-1.40;84.30;;;;;;5113263;27;20220;-65
2021/12/27 06:15:03;;;;;;;39.83;26.02;;;-1.40;84.20;;;;;;5113407;27;20732;-65
2021/12/27 06:17:31;;;;;;;41.90;27.88;;;-1.50;84.30;;;;;;5112746;27;20218;-64
2021/12/27 06:20:00;;;;;;;51.25;28.85;;;-1.50;84.50;;;;;;5113197;27;20225;-65
2021/12/27 06:22:28;;;;;;;40.45;26.23;;;-1.50;84.70;;;;;;5112995;27;20220;-65
2021/12/27 06:24:55;;;;;;;47.55;27.40;;;-1.40;85.00;;;;;;5112748;27;20218;-64
2021/12/27 06:27:22;;;;;;;49.08;27.75;;;-1.30;85.30;;;;;;5118086;27;20226;-65
2021/12/27 06:29:48;;;;;;;44.38;26.20;;;-1.40;85.40;;;;;;5133011;27;20643;-65
2021/12/27 06:32:15;;;;;;;40.25;27.33;;;-1.30;85.00;;;;;;5120146;27;20230;-65
2021/12/27 06:34:42;;;;;;;48.88;26.33;;;-1.30;85.40;;;;;;5119449;27;20224;-65
2021/12/27 06:37:10;;;;;;;49.42;28.40;;;-1.20;86.10;;;;;;5133573;27;20294;-65
2021/12/27 06:39:37;;;;;;;42.00;26.13;;;-1.30;86.80;;;;;;5133004;27;20229;-65
2021/12/27 06:42:05;;;;;;;43.20;27.33;;;-1.20;87.80;;;;;;5133636;27;20217;-65
2021/12/27 06:44:33;;;;;;;43.92;25.50;;;-1.20;88.20;;;;;;5133166;27;20221;-65
2021/12/27 06:47:00;;;;;;;47.88;29.65;;;-1.20;88.60;;;;;;5133403;27;20220;-65
2021/12/27 06:49:27;;;;;;;47.78;28.52;;;-1.20;88.90;;;;;;5133329;27;20224;-64
2021/12/27 06:51:54;;;;;;;44.63;26.13;;;-1.10;89.00;;;;;;5132908;27;20229;-65
2021/12/27 06:54:22;;;;;;;42.70;26.75;;;-1.10;88.80;;;;;;5133659;27;20341;-65
2021/12/27 06:56:49;;;;;;;44.42;27.17;;;-1.10;89.10;;;;;;5133033;27;20705;-65
2021/12/27 06:59:17;;;;;;;42.80;26.17;;;-1.10;89.50;;;;;;5125123;27;20224;-65
2021/12/27 07:01:44;;;;;;;44.22;27.65;;;-1.00;89.50;;;;;;5112385;27;20224;-65
2021/12/27 07:04:11;;;;;;;39.67;25.85;;;-1.00;89.90;;;;;;5113317;27;20215;-65
2021/12/27 07:06:38;;;;;;;33.72;24.10;;;-0.90;89.90;;;;;;5132764;27;20255;-65
2021/12/27 07:09:06;;;;;;;47.92;29.25;;;-0.90;90.30;;;;;;5133152;27;20224;-65
2021/12/27 07:11:35;;;;;;;37.90;25.80;;;-0.90;89.50;;;;;;5133095;27;20572;-65
2021/12/27 07:14:03;;;;;;;42.00;26.65;;;-0.90;89.50;;;;;;5132771;27;20227;-66
2021/12/27 07:16:30;;;;;;;44.65;27.52;;;-1.00;88.90;;;;;;5133276;27;20270;-65
2021/12/27 07:18:56;;;;;;;42.22;26.75;;;-1.00;89.30;;;;;;5135467;27;20229;-65
2021/12/27 07:21:23;;;;;;;51.60;31.30;;;-1.00;89.80;;;;;;5136997;27;20223;-65
2021/12/27 07:23:50;;;;;;;40.88;26.48;;;-0.90;90.20;;;;;;5119732;27;20588;-65
2021/12/27 07:26:17;;;;;;;45.50;26.33;;;-0.90;90.30;;;;;;5124719;27;20542;-65
2021/12/27 07:28:45;;;;;;;43.75;27.67;;;-0.90;90.30;;;;;;5136399;27;20241;-66
2021/12/27 07:31:12;;;;;;;42.75;25.55;;;-0.90;90.60;;;;;;5132653;27;20358;-66
2021/12/27 07:33:39;;;;;;;44.97;29.58;;;-0.90;90.60;;;;;;5115894;27;20585;-66
2021/12/27 07:36:08;;;;;;;42.67;27.00;;;-0.90;90.80;;;;;;5134934;27;20815;-66
2021/12/27 07:38:35;;;;;;;48.42;25.63;;;-0.90;90.90;;;;;;5136737;27;20276;-66
2021/12/27 07:41:02;;;;;;;44.25;26.70;;;-0.90;90.90;;;;;;5136267;27;20677;-66
2021/12/27 07:43:29;;;;;;;51.42;27.75;;;-0.90;91.10;;;;;;5136902;27;20223;-66
2021/12/27 07:45:57;;;;;;;48.15;28.25;;;-1.00;90.90;;;;;;5136266;27;20600;-66
2021/12/27 07:48:24;;;;;;;43.20;27.55;;;-1.00;91.10;;;;;;5136305;27;20691;-66
2021/12/27 07:50:51;;;;;;;47.70;29.13;;;-1.10;91.20;;;;;;5136094;27;20234;-66
2021/12/27 07:53:18;;;;;;;46.38;27.63;;;-1.20;91.50;;;;;;5136171;27;20305;-66
2021/12/27 07:55:45;;;;;;;44.35;29.25;;;-1.10;91.70;;;;;;5136114;27;20226;-65
2021/12/27 07:58:12;;;;;;;43.15;27.83;;;-1.10;91.90;;;;;;5136540;27;20219;-65
2021/12/27 08:00:39;;;;;;;43.15;28.15;;;-1.10;91.80;;;;;;5116384;27;20230;-65
2021/12/27 08:03:07;;;;;;;48.38;26.65;;;-1.20;91.90;;;;;;5115325;27;20318;-64
2021/12/27 08:05:34;;;;;;;42.13;28.33;;;-1.10;92.00;;;;;;5128022;27;20239;-64
2021/12/27 08:08:01;;;;;;;46.80;29.38;;;-1.10;92.00;;;;;;5135485;27;20236;-64
2021/12/27 08:10:28;;;;;;;53.00;28.42;;;-1.00;92.00;;;;;;5136100;27;20223;-65
2021/12/27 08:12:56;;;;;;;47.75;29.30;;;-0.90;91.90;;;;;;5135866;27;20275;-65
2021/12/27 08:15:23;;;;;;;47.30;28.27;;;-0.90;91.90;;;;;;5136011;27;20227;-65
2021/12/27 08:17:49;;;;;;;39.88;26.15;;;-0.80;91.80;;;;;;5135691;27;20242;-65
2021/12/27 08:20:18;;;;;;;42.65;27.13;;;-0.70;92.10;;;;;;5135989;27;20224;-65
2021/12/27 08:22:45;;;;;;;43.00;27.17;;;-0.60;91.90;;;;;;5127757;27;20239;-65
2021/12/27 08:25:12;;;;;;;45.47;27.98;;;-0.60;91.90;;;;;;5115347;27;20225;-65
2021/12/27 08:27:41;;;;;;;44.67;26.90;;;-0.60;91.90;;;;;;5122791;27;20226;-65
2021/12/27 08:30:09;;;;;;;39.38;27.50;;;-0.60;91.70;;;;;;5134469;27;20247;-65
2021/12/27 08:32:39;;;;;;;43.13;27.13;;;-0.60;91.80;;;;;;5119426;27;20265;-65
2021/12/27 08:35:09;;;;;;;50.47;28.08;;;-0.50;91.80;;;;;;5124838;27;20224;-65
2021/12/27 08:37:38;;;;;;;44.17;28.63;;;-0.50;92.10;;;;;;5135467;27;20700;-64
2021/12/27 08:40:08;;;;;;;45.50;26.35;;;-0.40;92.10;;;;;;5135212;27;20223;-65
2021/12/27 08:42:35;;;;;;;41.83;28.02;;;-0.30;92.20;;;;;;5135647;27;20230;-65
2021/12/27 08:45:03;;;;;;;50.78;29.25;;;-0.30;91.80;;;;;;5135126;27;20222;-65
2021/12/27 08:47:30;;;;;;;43.13;27.77;;;-0.30;91.90;;;;;;5135233;27;20219;-65
2021/12/27 08:49:57;;;;;;;47.30;27.10;;;-0.20;92.00;;;;;;5134934;27;20686;-65
2021/12/27 08:52:24;;;;;;;40.88;26.27;;;-0.10;91.90;;;;;;5135368;27;20221;-65
2021/12/27 08:54:52;;;;;;;43.38;27.38;;;-0.10;91.70;;;;;;5134857;27;20223;-65
2021/12/27 08:57:19;;;;;;;44.00;26.33;;;-0.10;91.60;;;;;;5135292;27;20694;-65
2021/12/27 08:59:45;;;;;;;37.20;25.15;;;-0.10;91.60;;;;;;5122199;27;20256;-65
2021/12/27 09:02:13;;;;;;;39.90;26.05;;;0.00;91.70;;;;;;5114659;27;20235;-65
2021/12/27 09:04:40;;;;;;;39.38;28.10;;;0.10;91.70;;;;;;5119280;27;20221;-65
2021/12/27 09:07:08;;;;;;;37.45;26.10;;;0.00;91.30;;;;;;5134294;27;20226;-65
2021/12/27 09:09:35;;;;;;;44.17;27.38;;;0.00;91.40;;;;;;5134978;27;20290;-64
2021/12/27 09:12:04;;;;;;;42.17;24.98;;;0.00;91.50;;;;;;5134672;27;20223;-65
2021/12/27 09:14:30;;;;;;;42.55;27.30;;;0.10;91.80;;;;;;5134989;27;20227;-66
2021/12/27 09:16:57;;;;;;;41.63;26.48;;;0.10;91.90;;;;;;5134450;27;20231;-64
2021/12/27 09:19:24;;;;;;;41.95;26.15;;;0.00;91.80;;;;;;5134912;27;20223;-65
2021/12/27 09:21:52;;;;;;;35.88;25.75;;;0.10;91.90;;;;;;5134394;27;20686;-65
2021/12/27 09:24:19;;;;;;;40.08;25.48;;;0.10;91.90;;;;;;5114108;27;20232;-65
2021/12/27 09:26:46;;;;;;;46.67;27.70;;;0.10;91.80;;;;;;5114152;27;20229;-65
2021/12/27 09:29:15;;;;;;;43.60;26.92;;;0.10;92.00;;;;;;5134002;27;20223;-65
2021/12/27 09:31:42;;;;;;;43.65;27.67;;;0.20;92.20;;;;;;5126080;27;20233;-65
2021/12/27 09:34:09;;;;;;;42.53;27.67;;;0.20;92.00;;;;;;5115433;27;20240;-65
2021/12/27 09:36:35;;;;;;;47.53;27.63;;;0.20;91.90;;;;;;5134314;27;20225;-65
2021/12/27 09:39:03;;;;;;;43.22;26.90;;;0.30;92.00;;;;;;5133982;27;20217;-65
2021/12/27 09:41:30;;;;;;;40.75;25.35;;;0.20;92.00;;;;;;5134289;27;20224;-65
2021/12/27 09:43:57;;;;;;;34.55;24.35;;;0.20;92.00;;;;;;5133921;27;20221;-65
2021/12/27 09:46:25;;;;;;;43.53;26.67;;;0.30;92.10;;;;;;5134396;27;20238;-65
2021/12/27 09:48:54;;;;;;;35.53;25.40;;;0.20;92.10;;;;;;5133742;27;20225;-64
2021/12/27 09:51:22;;;;;;;43.55;27.20;;;0.20;92.40;;;;;;5133889;27;20234;-65
2021/12/27 09:53:49;;;;;;;92.85;34.03;;;0.20;92.40;;;;;;5134100;27;20230;-65
2021/12/27 09:56:16;;;;;;;51.80;30.38;;;0.20;92.70;;;;;;5133885;27;20218;-65
2021/12/27 09:58:43;;;;;;;69.47;28.90;;;0.30;92.70;;;;;;5133994;27;20216;-65
2021/12/27 10:01:10;;;;;;;44.13;28.60;;;0.40;92.80;;;;;;5133558;27;20320;-65
2021/12/27 10:03:48;;;;;;;50.33;26.63;;;0.40;92.40;;;;;;5134050;27;20225;-65
2021/12/27 10:06:16;;;;;;;43.08;25.38;;;0.50;92.40;;;;;;5133325;27;20227;-65
2021/12/27 10:08:47;;;;;;;43.38;25.88;;;0.50;92.50;;;;;;5133935;27;20574;-65
2021/12/27 10:11:19;;;;;;;46.95;27.65;;;0.40;92.30;;;;;;5133341;27;20244;-65
2021/12/27 10:14:05;;;;;;;41.03;27.88;;;0.40;92.50;;;;;;5133907;27;20237;-65
2021/12/27 10:16:36;;;;;;;40.88;26.60;;;0.40;92.50;;;;;;5134241;27;20337;-65
2021/12/27 10:19:06;;;;;;;42.40;25.25;;;0.30;92.40;;;;;;5133605;27;20298;-64
2021/12/27 10:21:34;;;;;;;43.25;27.00;;;0.40;92.60;;;;;;5133742;27;20312;-64
2021/12/27 10:24:06;;;;;;;42.95;27.33;;;0.40;92.50;;;;;;5133164;27;20231;-65
2021/12/27 10:26:34;;;;;;;45.15;26.27;;;0.40;92.60;;;;;;5133552;27;20228;-64
2021/12/27 10:29:10;;;;;;;38.10;27.02;;;0.40;92.70;;;;;;5133201;27;20551;-64
2021/12/27 10:32:04;;;;;;;46.95;27.05;;;0.40;92.60;;;;;;5125615;27;20228;-65
2021/12/27 10:34:35;;;;;;;38.13;24.63;;;0.40;92.70;;;;;;5118015;27;20210;-64
2021/12/27 10:37:09;;;;;;;41.92;25.30;;;0.50;92.80;;;;;;5133543;27;20561;-65
2021/12/27 10:39:51;;;;;;;43.63;26.67;;;0.50;92.70;;;;;;5133088;27;20227;-65
2021/12/27 10:42:20;;;;;;;45.70;26.52;;;0.40;92.60;;;;;;5133555;27;20226;-66
2021/12/27 10:44:48;;;;;;;42.60;26.38;;;0.30;92.80;;;;;;5133361;27;20311;-65
2021/12/27 10:47:31;;;;;;;48.47;28.38;;;0.40;93.00;;;;;;5133334;27;20690;-65
2021/12/27 10:50:05;;;;;;;40.67;26.02;;;0.40;93.20;;;;;;5133595;27;20717;-65
2021/12/27 10:52:44;;;;;;;48.67;28.23;;;0.50;93.50;;;;;;5133611;27;20206;-66
2021/12/27 10:55:12;;;;;;;41.42;26.02;;;0.60;93.20;;;;;;5137220;27;20682;-65
2021/12/27 10:57:39;;;;;;;38.55;26.92;;;0.60;93.20;;;;;;5137654;27;20703;-65
2021/12/27 11:00:21;;;;;;;38.65;24.77;;;0.70;93.30;;;;;;5122428;27;20240;-66
2021/12/27 11:02:48;;;;;;;36.00;27.08;;;0.80;93.20;;;;;;5116868;27;20224;-65
2021/12/27 11:05:19;;;;;;;47.97;28.00;;;0.90;93.30;;;;;;5126427;27;20230;-65
2021/12/27 11:07:46;;;;;;;44.17;26.45;;;1.00;92.80;;;;;;5137460;27;20240;-65
2021/12/27 11:10:13;;;;;;;39.90;24.88;;;1.10;92.80;;;;;;5136752;27;20226;-66
2021/12/27 11:12:40;;;;;;;45.35;26.33;;;1.10;92.50;;;;;;5137538;27;20221;-66
2021/12/27 11:15:12;;;;;;;36.20;25.00;;;1.00;92.60;;;;;;5136896;27;20223;-65
2021/12/27 11:17:40;;;;;;;39.03;25.17;;;1.10;92.60;;;;;;5137182;27;20232;-65
2021/12/27 11:20:10;;;;;;;46.72;29.90;;;1.00;92.70;;;;;;5136729;27;20239;-66
2021/12/27 11:22:41;;;;;;;41.97;27.92;;;1.10;92.80;;;;;;5130699;27;20676;-65
2021/12/27 11:25:19;;;;;;;50.85;30.15;;;1.20;92.70;;;;;;5115966;27;20674;-64
2021/12/27 11:27:46;;;;;;;42.63;28.50;;;1.20;92.50;;;;;;5124822;27;20224;-64
2021/12/27 11:30:16;;;;;;;42.63;26.45;;;1.30;92.70;;;;;;5136368;27;20232;-66
2021/12/27 11:33:06;;;;;;;46.65;32.78;;;1.40;92.70;;;;;;5119738;27;20228;-65
2021/12/27 11:35:35;;;;;;;60.05;32.60;;;1.40;92.70;;;;;;5129996;27;20262;-65
2021/12/27 11:38:04;;;;;;;54.63;36.10;;;1.50;92.70;;;;;;5136643;27;20216;-65
2021/12/27 11:40:42;;;;;;;48.65;34.53;;;1.40;92.80;;;;;;5136473;27;20226;-65
2021/12/27 11:43:10;;;;;;;51.53;34.42;;;1.50;92.70;;;;;;5136823;27;20220;-65
2021/12/27 11:45:46;;;;;;;94.30;61.33;;;1.60;92.70;;;;;;5136277;27;20228;-65
2021/12/27 11:48:15;;;;;;;57.92;35.40;;;1.60;92.90;;;;;;5116158;27;20538;-65
2021/12/27 11:51:10;;;;;;;55.83;34.80;;;1.60;93.00;;;;;;5119586;27;20224;-65
2021/12/27 11:53:47;;;;;;;52.63;31.38;;;1.70;92.90;;;;;;5136044;27;20277;-65
2021/12/27 11:56:18;;;;;;;52.20;30.52;;;1.80;92.70;;;;;;5136605;27;20217;-66
2021/12/27 11:58:50;;;;;;;55.47;32.05;;;1.70;92.50;;;;;;5132415;27;20213;-65
2021/12/27 12:01:36;;;;;;;66.57;33.50;;;1.80;92.70;;;;;;5115650;27;20225;-65
2021/12/27 12:04:03;;;;;;;53.90;31.88;;;1.80;92.80;;;;;;5114444;27;20224;-65
2021/12/27 12:06:38;;;;;;;53.78;33.88;;;1.90;93.00;;;;;;5134886;27;20232;-65
2021/12/27 12:09:13;;;;;;;48.95;32.38;;;2.00;93.00;;;;;;5135870;27;20254;-65
2021/12/27 12:11:40;;;;;;;60.30;33.80;;;2.00;92.60;;;;;;5136108;27;20222;-65
2021/12/27 12:14:29;;;;;;;53.63;34.67;;;2.10;92.80;;;;;;5135834;27;20286;-65
2021/12/27 12:16:58;;;;;;;49.75;28.42;;;2.10;92.60;;;;;;5135772;27;20243;-65
2021/12/27 12:19:40;;;;;;;51.15;32.65;;;2.10;92.30;;;;;;5136015;27;20225;-65
2021/12/27 12:22:09;;;;;;;51.88;34.25;;;2.10;92.40;;;;;;5135494;27;20218;-65
2021/12/27 12:24:37;;;;;;;46.80;31.42;;;2.10;92.40;;;;;;5136019;27;20303;-65
2021/12/27 12:27:09;;;;;;;50.60;34.60;;;2.00;92.50;;;;;;5135464;27;20692;-65
2021/12/27 12:29:39;;;;;;;52.58;33.25;;;2.00;92.70;;;;;;5135672;27;20286;-66
2021/12/27 12:32:08;;;;;;;51.15;33.83;;;2.10;92.70;;;;;;5123374;27;20225;-64
2021/12/27 12:34:35;;;;;;;49.85;31.67;;;2.10;92.70;;;;;;5118606;27;20221;-65
2021/12/27 12:37:04;;;;;;;43.67;26.77;;;2.20;92.80;;;;;;5114666;27;20249;-65
2021/12/27 12:39:40;;;;;;;36.67;27.60;;;2.20;92.50;;;;;;5115161;27;20221;-65